Annandale, Virginia
Current Conditions -  °F | °C
As of 12:58 AM on Sunday 21 Dec 2014 (Local Time) from KDAA Reporting Station
Overcast Overcast  
Wind Chill: 31°   Ceiling: 8000
Heat Index: 31°   Visibility: 10mi
Dew Point: 25°   Wind: 0mph
Humidity: 79%   Direction: NA
Pressure: 30.31"   Gusts: NA
Location:  38.83°N, 77.19°W
Report Text: KDAA 210558Z AUTO 00000KT 10SM OVC080 M01/M04 A3031 RMK AO2 SLP268 T10081041 10010 21015 55002
Loading
Personal Weather Stations






























Interactive Weather Map New forecast layout! Learn more

10-Day Weather Forecast

Advertisements
Track Severe Weather on mobile